SBOSBO ZRH / LSZH
Speedbird OnlineSpeedbird Online ZRH / LSZH

Zürich Airport
21:47 12.2°C

Location Zurich, Switzerland
Latitude: 47.464699
Longitude: 8.54917
Web Airport Website | Wikipedia
Altitude 432 Meter / 1416 Feet
Distance 756 KM / 470 Miles
from London.
Time Zone UTC +2 hours (Europe/Zurich)
Codes IATA: ZRH
ICAO: LSZH
Currency £1 equals CHF 1.07
Runways
RunwayLength (m)Surface
102500Concrete
143300Concrete
163700Concrete
282500Concrete
323300Concrete
343700Concrete
Radio
TypeDescriptionFrequency
APPAPP118
ATISATIS125.725
CLDCLNC DEL121.8
DEPDEP125.95
GNDGND121.9
RMPAPRON121.75
TCATERMINAL127.75
TWRTWR118.1
Live ATC
METAR LSZH 241920Z VRB01KT 9999 -SHRA FEW009 BKN075 12/12 Q1014 NOSIG
TAF TAF LSZH 241725Z 2418/2524 20004KT 9999 FEW010 BKN060 TX14/2514Z TN09/2504Z PROB40 TEMPO 2418/2421 SHRA FEW020TCU PROB40 2500/2506 3000 BR PROB30 2502/2507 1500 BCFG BKN004 TEMPO 2506/2524 SHRA FEW030TCU TEMPO 2512/2516 28008KT PROB30 TEMPO 2512/2518 TSRA FEW030CB
Weather As Of 24 Sep 2022 21:47
Description Light intensity shower rain
Wind 2 km/h from North (0°)
Cloud Cover 75%
Precipitation Rain: none, Snow: none
Sunrise 07:14
Sunset 19:20
Lounges Marhaba Lounge, 2
Aspire Lounge (Airport Center), Between Gates A & B
Primeclass Lounge, Dock E
Aspire Lounge (Dock E) , Dock E, Midfield Terminal, Gates E
Rotations During the last 90 days there were
238 flights from LHR
178 flights from LCY
236 flights to LHR
133 flights to LCY


© 2017-2022 Speedbird Online